Terminal Aerodrome Forecast
Issued by NWS Charleston, WV

Home | Current Version | Previous Version | Text Only | Print | Product List | Glossary On
Versions: 1 2 3 4 5 6 7 8 9 10 11 12 13 14 15 16 17 18 19 20 21 22 23 24 25 26 27
000
FTUS41 KRLX 230600 RRA
TAFPKB
TAF
KPKB 230609Z 2306/2406 00000KT 6SM BR OVC005
     FM230900 00000KT 4SM BR OVC005
      TEMPO 2309/2312 2SM BR
     FM231300 00000KT P6SM BKN010
     FM231500 VRB03KT P6SM BKN020
     FM231700 VRB03KT P6SM BKN030
     FM232100 VRB03KT P6SM SCT035
     FM240500 VRB03KT 4SM BR SCT005=

USA.gov is the U.S. government's official web portal to all federal, state and local government web resources and services.